createdAt,value
2019-03-22T00:01:13.294Z,9.17
2019-03-22T00:03:45.467Z,9.30
2019-03-22T00:06:17.215Z,9.24
2019-03-22T00:08:49.784Z,9.19
2019-03-22T00:11:21.563Z,9.16
2019-03-22T00:13:53.339Z,9.12
2019-03-22T00:16:24.994Z,9.09
2019-03-22T00:18:56.713Z,9.21
2019-03-22T00:21:28.502Z,9.18
2019-03-22T00:24:00.199Z,9.19
2019-03-22T00:26:32.630Z,9.24
2019-03-22T00:29:04.493Z,9.31
2019-03-22T00:31:36.156Z,9.16
2019-03-22T00:34:08.133Z,9.06
2019-03-22T00:36:39.889Z,9.14
2019-03-22T00:39:11.891Z,9.14
2019-03-22T00:41:43.637Z,9.12
2019-03-22T00:44:15.444Z,9.11
2019-03-22T00:46:47.170Z,9.09
2019-03-22T00:49:19.152Z,9.13
2019-03-22T00:51:50.918Z,9.14
2019-03-22T00:54:22.609Z,8.94
2019-03-22T00:56:54.594Z,8.93
2019-03-22T00:59:26.320Z,8.89
2019-03-22T01:01:58.051Z,8.89
2019-03-22T01:04:29.802Z,9.03
2019-03-22T01:07:01.499Z,9.10
2019-03-22T01:09:33.227Z,9.00
2019-03-22T01:12:05.233Z,9.00
2019-03-22T01:14:37.401Z,9.00
2019-03-22T01:17:09.099Z,9.02
2019-03-22T01:19:40.786Z,8.98
2019-03-22T01:22:12.485Z,8.92
2019-03-22T01:24:44.208Z,9.05
2019-03-22T01:27:15.929Z,8.98
2019-03-22T01:29:48.769Z,9.04
2019-03-22T01:32:20.529Z,8.94
2019-03-22T01:34:52.247Z,9.01
2019-03-22T01:37:24.011Z,8.82
2019-03-22T01:39:55.712Z,8.94
2019-03-22T01:42:27.865Z,8.99
2019-03-22T01:44:59.591Z,9.05
2019-03-22T01:47:31.280Z,9.10
2019-03-22T01:50:03.000Z,8.98
2019-03-22T01:52:34.735Z,8.91
2019-03-22T01:55:06.478Z,8.85
2019-03-22T01:57:38.698Z,9.00
2019-03-22T02:00:12.971Z,9.04
2019-03-22T02:02:45.321Z,9.03
2019-03-22T02:05:17.099Z,9.05
2019-03-22T02:07:48.867Z,9.04
2019-03-22T02:10:20.592Z,9.00
2019-03-22T02:12:52.717Z,9.06
2019-03-22T02:15:24.520Z,8.97
2019-03-22T02:17:56.279Z,8.97
2019-03-22T02:20:27.948Z,8.81
2019-03-22T02:22:59.782Z,8.89
2019-03-22T02:25:31.526Z,8.81
2019-03-22T02:28:04.456Z,8.78
2019-03-22T02:30:37.918Z,8.78
2019-03-22T02:33:10.181Z,8.81
2019-03-22T02:35:43.131Z,8.74
2019-03-22T02:38:14.869Z,8.83
2019-03-22T02:40:46.557Z,8.87
2019-03-22T02:43:18.274Z,8.87
2019-03-22T02:45:50.104Z,8.94
2019-03-22T02:48:21.868Z,9.04
2019-03-22T02:50:56.108Z,8.88
2019-03-22T02:53:30.593Z,8.88
2019-03-22T02:56:02.501Z,8.98
2019-03-22T02:58:34.382Z,8.95
2019-03-22T03:01:06.602Z,8.80
2019-03-22T03:03:39.242Z,8.76
2019-03-22T03:06:12.380Z,8.88
2019-03-22T03:08:45.123Z,8.99
2019-03-22T03:11:18.718Z,8.94
2019-03-22T03:13:50.876Z,8.97
2019-03-22T03:16:23.273Z,8.87
2019-03-22T03:18:56.135Z,8.85
2019-03-22T03:21:27.830Z,8.96
2019-03-22T03:23:59.563Z,8.95
2019-03-22T03:26:31.634Z,8.93
2019-03-22T03:29:03.347Z,8.97
2019-03-22T03:31:35.017Z,8.93
2019-03-22T03:34:06.829Z,8.88
2019-03-22T03:36:38.641Z,8.77
2019-03-22T03:39:10.759Z,8.67
2019-03-22T03:41:42.436Z,8.66
2019-03-22T03:44:14.166Z,8.55
2019-03-22T03:46:45.876Z,8.62
2019-03-22T03:49:17.615Z,8.66
2019-03-22T03:51:49.297Z,8.71
2019-03-22T03:54:21.746Z,8.84
2019-03-22T03:56:53.465Z,8.90
2019-03-22T03:59:25.179Z,9.00
2019-03-22T04:01:56.992Z,8.95
2019-03-22T04:04:28.778Z,9.02
2019-03-22T04:07:00.834Z,8.85
2019-03-22T04:09:33.323Z,8.82
2019-03-22T04:12:05.095Z,8.71
2019-03-22T04:14:36.825Z,8.70
2019-03-22T04:17:08.507Z,8.66
2019-03-22T04:19:40.626Z,8.65
2019-03-22T04:22:12.334Z,8.59
2019-03-22T04:24:45.211Z,8.52
2019-03-22T04:27:16.868Z,8.63
2019-03-22T04:29:48.633Z,8.51
2019-03-22T04:32:20.319Z,8.62
2019-03-22T04:34:52.039Z,8.78
2019-03-22T04:37:24.111Z,8.73
2019-03-22T04:39:55.791Z,8.85
2019-03-22T04:42:27.960Z,8.65
2019-03-22T04:44:59.713Z,8.64
2019-03-22T04:47:31.990Z,8.64
2019-03-22T04:50:04.293Z,8.72
2019-03-22T04:52:36.444Z,8.69
2019-03-22T04:55:08.194Z,8.78
2019-03-22T04:57:40.297Z,8.75
2019-03-22T05:00:12.512Z,8.80
2019-03-22T05:02:45.510Z,8.75
2019-03-22T05:05:18.418Z,8.77
2019-03-22T05:07:52.018Z,8.75
2019-03-22T05:10:26.367Z,8.77
2019-03-22T05:13:01.460Z,8.90
2019-03-22T05:15:34.532Z,8.86
2019-03-22T05:18:06.727Z,8.81
2019-03-22T05:20:40.290Z,8.79
2019-03-22T05:23:12.906Z,8.77
2019-03-22T05:25:45.762Z,8.78
2019-03-22T05:28:17.842Z,8.67
2019-03-22T05:31:22.832Z,8.70
2019-03-22T05:33:54.585Z,8.82
2019-03-22T05:36:26.318Z,8.84
2019-03-22T05:38:58.020Z,8.82
2019-03-22T05:41:29.722Z,8.73
2019-03-22T05:44:01.430Z,8.78
2019-03-22T05:46:33.246Z,8.71
2019-03-22T05:49:05.287Z,8.66
2019-03-22T05:51:37.054Z,8.69
2019-03-22T05:54:08.835Z,8.68
2019-03-22T05:56:40.572Z,8.68
2019-03-22T05:59:12.376Z,8.63
2019-03-22T06:01:48.256Z,8.63
2019-03-22T06:04:20.329Z,8.70
2019-03-22T06:06:52.190Z,8.73
2019-03-22T06:09:23.870Z,8.74
2019-03-22T06:11:55.700Z,8.85
2019-03-22T06:14:27.420Z,8.99
2019-03-22T06:16:59.195Z,9.08
2019-03-22T06:19:30.952Z,9.08
2019-03-22T06:22:02.668Z,9.15
2019-03-22T06:24:34.446Z,9.10
2019-03-22T06:27:06.187Z,9.14
2019-03-22T06:29:37.988Z,9.17
2019-03-22T06:32:09.782Z,9.18
2019-03-22T06:34:42.649Z,9.30
2019-03-22T06:37:14.515Z,9.38
2019-03-22T06:39:46.352Z,9.43
2019-03-22T06:42:18.053Z,9.28
2019-03-22T06:44:53.705Z,9.32
2019-03-22T06:47:25.622Z,9.35
2019-03-22T06:49:58.259Z,9.49
2019-03-22T06:52:30.013Z,9.46
2019-03-22T06:55:01.676Z,9.49
2019-03-22T06:57:33.846Z,9.48
2019-03-22T07:00:07.498Z,9.52
2019-03-22T07:02:39.756Z,9.52
2019-03-22T07:05:13.482Z,9.39
2019-03-22T07:07:45.475Z,9.53
2019-03-22T07:10:17.221Z,9.46
2019-03-22T07:12:51.069Z,9.47
2019-03-22T07:15:22.655Z,9.30
2019-03-22T07:17:54.429Z,9.46
2019-03-22T07:20:26.120Z,9.54
2019-03-22T07:22:57.890Z,9.62
2019-03-22T07:25:29.625Z,9.53
2019-03-22T07:28:01.747Z,9.48
2019-03-22T07:30:33.976Z,9.46
2019-03-22T07:33:05.657Z,9.49
2019-03-22T07:35:37.588Z,9.49
2019-03-22T07:38:09.398Z,9.62
2019-03-22T07:40:43.013Z,9.56
2019-03-22T07:43:14.940Z,9.21
2019-03-22T07:45:46.768Z,9.24
2019-03-22T07:48:18.525Z,9.14
2019-03-22T07:50:50.372Z,9.12
2019-03-22T07:53:22.149Z,9.13
2019-03-22T07:55:54.015Z,9.32
2019-03-22T07:58:25.605Z,9.29
2019-03-22T08:00:58.944Z,9.17
2019-03-22T08:03:31.046Z,8.98
2019-03-22T08:06:02.723Z,9.10
2019-03-22T08:08:34.821Z,9.13
2019-03-22T08:11:07.134Z,9.43
2019-03-22T08:13:39.893Z,9.51
2019-03-22T08:16:11.633Z,9.57
2019-03-22T08:18:43.440Z,9.60
2019-03-22T08:21:15.225Z,9.68
2019-03-22T08:23:47.345Z,9.67
2019-03-22T08:26:20.016Z,9.60
2019-03-22T08:28:52.246Z,9.47
2019-03-22T08:31:24.004Z,9.45
2019-03-22T08:33:56.212Z,9.41
2019-03-22T08:36:28.129Z,9.23
2019-03-22T08:39:00.584Z,9.24
2019-03-22T08:41:33.990Z,9.48
2019-03-22T08:44:06.162Z,9.59
2019-03-22T08:46:37.968Z,9.68
2019-03-22T08:49:10.046Z,9.76
2019-03-22T08:51:42.035Z,9.89
2019-03-22T08:54:13.746Z,9.41
2019-03-22T08:56:45.731Z,9.61
2019-03-22T08:59:17.781Z,9.71
2019-03-22T09:01:50.607Z,9.75
2019-03-22T09:04:22.423Z,9.72
2019-03-22T09:06:54.171Z,9.78
2019-03-22T09:09:26.255Z,9.25
2019-03-22T09:11:58.005Z,9.05
2019-03-22T09:14:29.787Z,8.99
2019-03-22T09:17:01.928Z,9.10
2019-03-22T09:19:33.666Z,8.96
2019-03-22T09:22:05.557Z,8.91
2019-03-22T09:24:39.407Z,9.09
2019-03-22T09:27:11.299Z,9.15
2019-03-22T09:29:43.077Z,9.19
2019-03-22T09:32:14.779Z,9.18
2019-03-22T09:34:47.369Z,9.46
2019-03-22T09:37:19.303Z,9.59
2019-03-22T09:39:51.126Z,9.65
2019-03-22T09:42:22.882Z,9.63
2019-03-22T09:44:54.638Z,9.31
2019-03-22T09:47:26.946Z,9.51
2019-03-22T09:49:58.693Z,9.60
2019-03-22T09:52:33.577Z,9.40
2019-03-22T09:55:13.444Z,9.22
2019-03-22T09:57:37.779Z,9.45
2019-03-22T10:00:10.039Z,9.67
2019-03-22T10:02:43.862Z,9.86
2019-03-22T10:05:21.039Z,9.87
2019-03-22T10:07:52.958Z,9.54
2019-03-22T10:10:24.899Z,9.74
2019-03-22T10:12:57.739Z,9.93
2019-03-22T10:15:29.537Z,9.75
2019-03-22T10:18:01.282Z,9.92
2019-03-22T10:20:33.557Z,10.04
2019-03-22T10:23:05.329Z,10.03
2019-03-22T10:25:37.383Z,10.19
2019-03-22T10:28:10.553Z,10.30
2019-03-22T10:30:42.398Z,10.34
2019-03-22T10:33:22.648Z,10.29
2019-03-22T10:35:48.170Z,10.24
2019-03-22T10:38:30.916Z,10.22
2019-03-22T10:40:54.130Z,10.39
2019-03-22T10:43:25.860Z,9.93
2019-03-22T10:45:57.589Z,10.26
2019-03-22T10:48:29.491Z,10.21
2019-03-22T10:51:01.262Z,10.04
2019-03-22T10:53:32.959Z,9.98
2019-03-22T10:56:04.818Z,10.20
2019-03-22T10:58:36.608Z,10.00
2019-03-22T11:01:08.978Z,9.94
2019-03-22T11:03:40.902Z,10.05
2019-03-22T11:06:13.956Z,9.82
2019-03-22T11:08:46.029Z,10.04
2019-03-22T11:11:17.829Z,10.15
2019-03-22T11:13:50.290Z,10.21
2019-03-22T11:16:28.582Z,10.50
2019-03-22T11:19:00.888Z,10.56
2019-03-22T11:21:33.283Z,10.39
2019-03-22T11:24:05.112Z,10.55
2019-03-22T11:26:36.824Z,10.62
2019-03-22T11:29:09.042Z,10.59
2019-03-22T11:31:40.810Z,10.83
2019-03-22T11:34:12.503Z,10.79
2019-03-22T11:36:44.422Z,10.62
2019-03-22T11:39:16.247Z,10.71
2019-03-22T11:41:48.597Z,10.95
2019-03-22T11:44:21.208Z,10.91
2019-03-22T11:46:53.102Z,11.07
2019-03-22T11:49:25.569Z,11.08
2019-03-22T11:51:58.462Z,11.16
2019-03-22T11:54:30.594Z,11.18
2019-03-22T11:57:02.423Z,11.06
2019-03-22T11:59:34.168Z,11.06
2019-03-22T12:02:06.505Z,10.95
2019-03-22T12:04:38.912Z,10.99
2019-03-22T12:07:11.678Z,10.93
2019-03-22T12:09:45.303Z,11.04
2019-03-22T12:12:17.299Z,11.13
2019-03-22T12:14:49.538Z,11.10
2019-03-22T12:17:21.451Z,11.06
2019-03-22T12:19:53.827Z,11.26
2019-03-22T12:22:25.714Z,11.16
2019-03-22T12:24:57.572Z,11.42
2019-03-22T12:27:36.446Z,11.09
2019-03-22T12:30:03.319Z,11.22
2019-03-22T12:32:35.213Z,10.97
2019-03-22T12:35:08.480Z,11.09
2019-03-22T12:37:40.385Z,11.13
2019-03-22T12:40:12.970Z,11.23
2019-03-22T12:42:45.624Z,11.34
2019-03-22T12:45:20.389Z,11.31
2019-03-22T12:47:52.319Z,11.21
2019-03-22T12:50:25.697Z,11.27
2019-03-22T12:52:57.882Z,11.58
2019-03-22T12:55:29.588Z,11.50
2019-03-22T12:58:01.483Z,11.53
2019-03-22T13:00:33.393Z,11.61
2019-03-22T13:03:05.150Z,11.67
2019-03-22T13:05:37.490Z,11.65
2019-03-22T13:08:10.394Z,11.60
2019-03-22T13:10:42.312Z,11.81
2019-03-22T13:13:14.154Z,11.87
2019-03-22T13:15:45.912Z,12.01
2019-03-22T13:18:17.700Z,12.09
2019-03-22T13:20:51.094Z,12.00
2019-03-22T13:23:23.632Z,11.73
2019-03-22T13:25:55.404Z,11.60
2019-03-22T13:28:27.138Z,11.75
2019-03-22T13:30:58.828Z,11.88
2019-03-22T13:33:30.574Z,11.77
2019-03-22T13:36:02.896Z,12.02
2019-03-22T13:38:34.768Z,12.03
2019-03-22T13:41:06.614Z,12.14
2019-03-22T13:43:38.489Z,12.22
2019-03-22T13:46:10.835Z,12.33
2019-03-22T13:48:42.636Z,12.35
2019-03-22T13:51:14.622Z,12.17
2019-03-22T13:53:46.449Z,12.15
2019-03-22T13:56:18.472Z,12.39
2019-03-22T13:58:51.544Z,12.42
2019-03-22T14:01:24.869Z,12.55
2019-03-22T14:03:56.790Z,12.46
2019-03-22T14:06:29.058Z,12.55
2019-03-22T14:09:01.766Z,12.63
2019-03-22T14:11:34.122Z,12.54
2019-03-22T14:14:06.402Z,12.37
2019-03-22T14:16:38.241Z,12.54
2019-03-22T14:19:10.007Z,12.68
2019-03-22T14:21:41.706Z,12.65
2019-03-22T14:24:13.461Z,12.72
2019-03-22T14:26:45.498Z,12.51
2019-03-22T14:29:17.328Z,12.76
2019-03-22T14:31:49.159Z,12.67
2019-03-22T14:34:21.007Z,12.71
2019-03-22T14:36:52.802Z,12.78
2019-03-22T14:39:24.631Z,12.64
2019-03-22T14:41:56.677Z,12.56
2019-03-22T14:44:28.502Z,12.72
2019-03-22T14:47:00.983Z,12.81
2019-03-22T14:49:32.713Z,12.69
2019-03-22T14:52:04.416Z,12.82
2019-03-22T14:54:36.555Z,12.94
2019-03-22T14:57:08.345Z,12.88
2019-03-22T14:59:40.132Z,12.98
2019-03-22T15:02:12.145Z,12.90
2019-03-22T15:04:43.973Z,12.90
2019-03-22T15:07:20.036Z,12.92
2019-03-22T15:09:49.676Z,12.99
2019-03-22T15:12:21.363Z,12.86
2019-03-22T15:15:12.075Z,12.90
2019-03-22T15:18:20.945Z,13.14
2019-03-22T15:21:17.732Z,13.14
2019-03-22T15:24:08.311Z,13.06
2019-03-22T15:26:57.864Z,13.11
2019-03-22T15:29:56.717Z,13.12
2019-03-22T15:32:53.663Z,13.21
2019-03-22T15:35:53.318Z,13.21
2019-03-22T15:38:44.228Z,13.25
2019-03-22T15:41:16.011Z,13.23
2019-03-22T15:43:47.898Z,13.21
2019-03-22T15:46:19.620Z,13.17
2019-03-22T15:48:51.450Z,13.18
2019-03-22T15:51:23.312Z,13.20
2019-03-22T15:53:55.100Z,13.12
2019-03-22T15:56:26.826Z,13.11
2019-03-22T15:58:58.593Z,13.12
2019-03-22T16:01:30.370Z,13.10
2019-03-22T16:04:02.131Z,13.09
2019-03-22T16:06:33.872Z,13.08
2019-03-22T16:09:07.892Z,13.06
2019-03-22T16:11:39.762Z,13.03
2019-03-22T16:14:11.889Z,13.05
2019-03-22T16:16:44.041Z,13.05
2019-03-22T16:19:15.737Z,13.03
2019-03-22T16:21:47.569Z,12.98
2019-03-22T16:24:19.228Z,13.01
2019-03-22T16:26:50.914Z,12.96
2019-03-22T16:29:22.577Z,12.96
2019-03-22T16:31:54.357Z,12.94
2019-03-22T16:34:26.093Z,12.92
2019-03-22T16:36:57.902Z,12.89
2019-03-22T16:39:29.658Z,12.95
2019-03-22T16:42:01.467Z,12.89
2019-03-22T16:44:33.252Z,12.86
2019-03-22T16:47:05.428Z,12.85
2019-03-22T16:49:37.220Z,12.88
2019-03-22T16:52:09.013Z,12.87
2019-03-22T16:54:40.792Z,12.88
2019-03-22T16:57:12.690Z,12.91
2019-03-22T16:59:44.976Z,12.89
2019-03-22T17:02:16.710Z,12.81
2019-03-22T17:04:48.463Z,12.84
2019-03-22T17:07:20.237Z,12.83
2019-03-22T17:09:51.967Z,12.82
2019-03-22T17:12:23.729Z,12.80
2019-03-22T17:14:55.453Z,12.78
2019-03-22T17:17:27.602Z,12.76
2019-03-22T17:19:59.385Z,12.72
2019-03-22T17:22:32.412Z,12.72
2019-03-22T17:25:04.228Z,12.68
2019-03-22T17:27:35.946Z,12.62
2019-03-22T17:30:09.169Z,12.61
2019-03-22T17:32:41.302Z,12.58
2019-03-22T17:35:13.154Z,12.53
2019-03-22T17:37:45.466Z,12.45
2019-03-22T17:40:17.469Z,12.40
2019-03-22T17:42:49.198Z,12.34
2019-03-22T17:45:21.023Z,12.28
2019-03-22T17:47:53.160Z,12.21
2019-03-22T17:50:25.092Z,12.16
2019-03-22T17:52:57.280Z,12.12
2019-03-22T17:55:29.191Z,12.06
2019-03-22T17:58:00.949Z,12.01
2019-03-22T18:00:32.813Z,11.95
2019-03-22T18:03:05.009Z,11.93
2019-03-22T18:05:36.698Z,11.90
2019-03-22T18:08:08.589Z,11.89
2019-03-22T18:10:40.357Z,11.84
2019-03-22T18:13:12.146Z,11.82
2019-03-22T18:15:43.846Z,11.81
2019-03-22T18:18:15.559Z,11.77
2019-03-22T18:20:47.625Z,11.75
2019-03-22T18:23:19.407Z,11.71
2019-03-22T18:25:51.579Z,11.66
2019-03-22T18:28:24.384Z,11.62
2019-03-22T18:30:56.187Z,11.62
2019-03-22T18:33:28.677Z,11.56
2019-03-22T18:36:00.487Z,11.54
2019-03-22T18:38:32.698Z,11.52
2019-03-22T18:41:04.432Z,11.48
2019-03-22T18:43:36.518Z,11.44
2019-03-22T18:46:08.336Z,11.44
2019-03-22T18:48:40.455Z,11.44
2019-03-22T18:51:12.255Z,11.37
2019-03-22T18:53:43.998Z,11.36
2019-03-22T18:56:15.760Z,11.34
2019-03-22T18:58:48.166Z,11.33
2019-03-22T19:01:19.800Z,11.33
2019-03-22T19:03:51.510Z,11.31
2019-03-22T19:06:23.638Z,11.25
2019-03-22T19:08:55.444Z,11.24
2019-03-22T19:11:27.251Z,11.23
2019-03-22T19:13:59.221Z,11.20
2019-03-22T19:16:31.293Z,11.18
2019-03-22T19:19:03.001Z,11.11
2019-03-22T19:21:34.732Z,11.04
2019-03-22T19:24:07.624Z,11.01
2019-03-22T19:26:39.389Z,10.97
2019-03-22T19:29:11.070Z,10.96
2019-03-22T19:31:43.283Z,10.92
2019-03-22T19:34:16.061Z,10.90
2019-03-22T19:36:47.810Z,10.88
2019-03-22T19:39:19.492Z,10.85
2019-03-22T19:41:51.179Z,10.85
2019-03-22T19:44:22.946Z,10.86
2019-03-22T19:46:54.652Z,10.83
2019-03-22T19:49:26.379Z,10.79
2019-03-22T19:51:58.142Z,10.74
2019-03-22T19:54:30.207Z,10.70
2019-03-22T19:57:01.885Z,10.70
2019-03-22T19:59:33.693Z,10.67
2019-03-22T20:02:05.412Z,10.64
2019-03-22T20:04:37.131Z,10.60
2019-03-22T20:07:08.887Z,10.57
2019-03-22T20:09:40.579Z,10.57
2019-03-22T20:12:12.751Z,10.56
2019-03-22T20:14:44.839Z,10.62
2019-03-22T20:17:16.573Z,10.59
2019-03-22T20:19:48.250Z,10.57
2019-03-22T20:22:19.955Z,10.59
2019-03-22T20:24:51.806Z,10.59
2019-03-22T20:27:23.589Z,10.60
2019-03-22T20:29:55.928Z,10.56
2019-03-22T20:32:27.720Z,10.58
2019-03-22T20:34:59.549Z,10.58
2019-03-22T20:37:31.675Z,10.63
2019-03-22T20:40:03.469Z,10.62
2019-03-22T20:42:35.315Z,10.65
2019-03-22T20:45:08.661Z,10.64
2019-03-22T20:47:40.851Z,10.63
2019-03-22T20:50:12.882Z,10.69
2019-03-22T20:52:44.714Z,10.62
2019-03-22T20:55:16.534Z,10.64
2019-03-22T20:57:49.427Z,10.64
2019-03-22T21:00:21.513Z,10.65
2019-03-22T21:02:53.987Z,10.64
2019-03-22T21:05:27.087Z,10.63
2019-03-22T21:07:59.351Z,10.66
2019-03-22T21:10:31.311Z,10.66
2019-03-22T21:13:03.660Z,10.78
2019-03-22T21:15:35.386Z,10.77
2019-03-22T21:18:07.131Z,10.82
2019-03-22T21:20:38.875Z,10.82
2019-03-22T21:23:11.219Z,10.86
2019-03-22T21:25:42.953Z,10.86
2019-03-22T21:28:14.753Z,10.82
2019-03-22T21:30:46.590Z,10.79
2019-03-22T21:33:18.319Z,10.75
2019-03-22T21:35:50.114Z,10.70
2019-03-22T21:38:21.879Z,10.76
2019-03-22T21:40:53.604Z,10.70
2019-03-22T21:43:25.815Z,10.58
2019-03-22T21:45:57.955Z,10.54
2019-03-22T21:48:30.434Z,10.54
2019-03-22T21:51:02.182Z,10.51
2019-03-22T21:53:34.015Z,10.42
2019-03-22T21:56:05.781Z,10.40
2019-03-22T21:58:37.494Z,10.44
2019-03-22T22:01:09.511Z,10.44
2019-03-22T22:03:41.254Z,10.50
2019-03-22T22:06:15.496Z,10.50
2019-03-22T22:08:47.235Z,10.58
2019-03-22T22:11:19.010Z,10.64
2019-03-22T22:13:50.727Z,10.69
2019-03-22T22:16:22.491Z,10.72
2019-03-22T22:18:54.162Z,10.67
2019-03-22T22:21:26.436Z,10.75
2019-03-22T22:23:58.939Z,10.65
2019-03-22T22:26:31.551Z,10.73
2019-03-22T22:29:03.708Z,10.64
2019-03-22T22:31:35.836Z,10.61
2019-03-22T22:34:07.565Z,10.66
2019-03-22T22:36:39.286Z,10.71
2019-03-22T22:39:11.412Z,10.64
2019-03-22T22:41:43.199Z,10.69
2019-03-22T22:44:14.976Z,10.72
2019-03-22T22:46:46.658Z,10.70
2019-03-22T22:49:18.561Z,10.70
2019-03-22T22:51:50.388Z,10.78
2019-03-22T22:54:22.742Z,10.77
2019-03-22T22:56:54.512Z,10.82
2019-03-22T22:59:26.735Z,10.89
2019-03-22T23:01:58.535Z,10.83
2019-03-22T23:04:32.210Z,10.86
2019-03-22T23:07:04.630Z,10.78
2019-03-22T23:09:36.392Z,10.78
2019-03-22T23:12:08.543Z,10.76
2019-03-22T23:14:40.318Z,10.79
2019-03-22T23:17:12.182Z,10.71
2019-03-22T23:19:43.880Z,10.73
2019-03-22T23:22:15.597Z,10.72
2019-03-22T23:24:48.479Z,10.78
2019-03-22T23:27:20.312Z,10.74
2019-03-22T23:29:52.323Z,10.78
2019-03-22T23:32:24.644Z,10.73
2019-03-22T23:34:59.243Z,10.60
2019-03-22T23:37:30.205Z,10.58
2019-03-22T23:40:01.961Z,10.57
2019-03-22T23:42:34.226Z,10.61
2019-03-22T23:45:06.378Z,10.62
2019-03-22T23:48:25.179Z,10.61
2019-03-22T23:50:57.024Z,10.63
2019-03-22T23:53:28.770Z,10.63
2019-03-22T23:56:00.937Z,10.59
2019-03-22T23:58:33.012Z,10.60
